sensor_id;sensor_type;location;lat;lon;timestamp;P1;durP1;ratioP1;P2;durP2;ratioP2
21315;SDS011;10817;55.820;13.030;2023-12-29T00:01:53;34.10;;;5.90;;
21315;SDS011;10817;55.820;13.030;2023-12-29T00:04:20;37.67;;;6.68;;
21315;SDS011;10817;55.820;13.030;2023-12-29T00:06:47;30.10;;;5.15;;
21315;SDS011;10817;55.820;13.030;2023-12-29T00:09:14;36.47;;;6.18;;
21315;SDS011;10817;55.820;13.030;2023-12-29T00:11:42;32.17;;;6.28;;
21315;SDS011;10817;55.820;13.030;2023-12-29T00:14:09;26.50;;;5.60;;
21315;SDS011;10817;55.820;13.030;2023-12-29T00:16:38;39.42;;;6.68;;
21315;SDS011;10817;55.820;13.030;2023-12-29T00:19:05;33.45;;;6.47;;
21315;SDS011;10817;55.820;13.030;2023-12-29T00:21:32;36.92;;;5.80;;
21315;SDS011;10817;55.820;13.030;2023-12-29T00:23:59;39.30;;;5.47;;
21315;SDS011;10817;55.820;13.030;2023-12-29T00:26:26;33.30;;;5.50;;
21315;SDS011;10817;55.820;13.030;2023-12-29T00:28:56;26.33;;;6.05;;
21315;SDS011;10817;55.820;13.030;2023-12-29T00:31:23;34.13;;;6.78;;
21315;SDS011;10817;55.820;13.030;2023-12-29T00:33:52;38.58;;;6.03;;
21315;SDS011;10817;55.820;13.030;2023-12-29T00:36:20;38.92;;;6.10;;
21315;SDS011;10817;55.820;13.030;2023-12-29T00:38:48;24.95;;;5.00;;
21315;SDS011;10817;55.820;13.030;2023-12-29T00:41:16;25.95;;;4.88;;
21315;SDS011;10817;55.820;13.030;2023-12-29T00:43:44;35.50;;;5.05;;
21315;SDS011;10817;55.820;13.030;2023-12-29T00:46:13;29.85;;;4.85;;
21315;SDS011;10817;55.820;13.030;2023-12-29T00:48:41;33.10;;;4.68;;
21315;SDS011;10817;55.820;13.030;2023-12-29T00:51:09;27.80;;;5.13;;
21315;SDS011;10817;55.820;13.030;2023-12-29T00:53:36;22.08;;;4.43;;
21315;SDS011;10817;55.820;13.030;2023-12-29T00:56:09;23.52;;;4.93;;
21315;SDS011;10817;55.820;13.030;2023-12-29T00:58:36;29.63;;;4.97;;
21315;SDS011;10817;55.820;13.030;2023-12-29T01:01:04;17.17;;;3.80;;
21315;SDS011;10817;55.820;13.030;2023-12-29T01:03:33;27.77;;;4.45;;
21315;SDS011;10817;55.820;13.030;2023-12-29T01:06:00;22.88;;;4.47;;
21315;SDS011;10817;55.820;13.030;2023-12-29T01:08:29;24.83;;;5.63;;
21315;SDS011;10817;55.820;13.030;2023-12-29T01:10:56;21.35;;;4.05;;
21315;SDS011;10817;55.820;13.030;2023-12-29T01:13:23;26.60;;;4.43;;
21315;SDS011;10817;55.820;13.030;2023-12-29T01:15:50;22.48;;;5.03;;
21315;SDS011;10817;55.820;13.030;2023-12-29T01:18:17;36.63;;;5.75;;
21315;SDS011;10817;55.820;13.030;2023-12-29T01:20:44;28.42;;;5.20;;
21315;SDS011;10817;55.820;13.030;2023-12-29T01:23:11;21.40;;;4.38;;
21315;SDS011;10817;55.820;13.030;2023-12-29T01:25:40;29.17;;;5.07;;
21315;SDS011;10817;55.820;13.030;2023-12-29T01:28:08;32.17;;;4.40;;
21315;SDS011;10817;55.820;13.030;2023-12-29T01:30:35;27.90;;;4.10;;
21315;SDS011;10817;55.820;13.030;2023-12-29T01:33:04;23.13;;;4.47;;
21315;SDS011;10817;55.820;13.030;2023-12-29T01:35:31;23.95;;;4.10;;
21315;SDS011;10817;55.820;13.030;2023-12-29T01:37:58;20.40;;;3.95;;
21315;SDS011;10817;55.820;13.030;2023-12-29T01:40:26;18.10;;;3.38;;
21315;SDS011;10817;55.820;13.030;2023-12-29T01:42:54;16.50;;;3.63;;
21315;SDS011;10817;55.820;13.030;2023-12-29T01:45:22;17.05;;;3.00;;
21315;SDS011;10817;55.820;13.030;2023-12-29T01:47:49;13.60;;;2.45;;
21315;SDS011;10817;55.820;13.030;2023-12-29T01:50:18;19.30;;;2.83;;
21315;SDS011;10817;55.820;13.030;2023-12-29T01:52:46;13.85;;;2.15;;
21315;SDS011;10817;55.820;13.030;2023-12-29T01:55:15;10.30;;;2.47;;
21315;SDS011;10817;55.820;13.030;2023-12-29T01:57:44;12.23;;;2.67;;
21315;SDS011;10817;55.820;13.030;2023-12-29T02:00:13;14.95;;;2.35;;
21315;SDS011;10817;55.820;13.030;2023-12-29T02:02:42;18.33;;;2.47;;
21315;SDS011;10817;55.820;13.030;2023-12-29T02:05:09;5.90;;;1.80;;
21315;SDS011;10817;55.820;13.030;2023-12-29T02:07:38;11.93;;;2.22;;
21315;SDS011;10817;55.820;13.030;2023-12-29T02:10:07;10.07;;;2.22;;
21315;SDS011;10817;55.820;13.030;2023-12-29T02:12:34;14.52;;;2.80;;
21315;SDS011;10817;55.820;13.030;2023-12-29T02:15:02;9.35;;;1.80;;
21315;SDS011;10817;55.820;13.030;2023-12-29T02:17:32;10.90;;;2.13;;
21315;SDS011;10817;55.820;13.030;2023-12-29T02:20:02;8.18;;;1.77;;
21315;SDS011;10817;55.820;13.030;2023-12-29T02:22:29;9.23;;;2.03;;
21315;SDS011;10817;55.820;13.030;2023-12-29T02:24:58;9.93;;;3.17;;
21315;SDS011;10817;55.820;13.030;2023-12-29T02:27:28;15.05;;;2.30;;
21315;SDS011;10817;55.820;13.030;2023-12-29T02:30:04;9.40;;;2.03;;
21315;SDS011;10817;55.820;13.030;2023-12-29T02:32:33;8.45;;;1.80;;
21315;SDS011;10817;55.820;13.030;2023-12-29T02:35:01;9.63;;;2.22;;
21315;SDS011;10817;55.820;13.030;2023-12-29T02:37:29;20.17;;;2.22;;
21315;SDS011;10817;55.820;13.030;2023-12-29T02:39:58;12.40;;;2.08;;
21315;SDS011;10817;55.820;13.030;2023-12-29T02:42:27;15.57;;;2.22;;
21315;SDS011;10817;55.820;13.030;2023-12-29T02:44:54;16.10;;;2.30;;
21315;SDS011;10817;55.820;13.030;2023-12-29T02:47:21;14.40;;;2.40;;
21315;SDS011;10817;55.820;13.030;2023-12-29T02:49:48;18.88;;;2.33;;
21315;SDS011;10817;55.820;13.030;2023-12-29T02:52:15;12.82;;;2.22;;
21315;SDS011;10817;55.820;13.030;2023-12-29T02:54:42;14.80;;;2.15;;
21315;SDS011;10817;55.820;13.030;2023-12-29T02:57:11;17.10;;;2.10;;
21315;SDS011;10817;55.820;13.030;2023-12-29T02:59:38;12.52;;;2.03;;
21315;SDS011;10817;55.820;13.030;2023-12-29T03:02:05;15.60;;;2.22;;
21315;SDS011;10817;55.820;13.030;2023-12-29T03:04:32;12.73;;;2.25;;
21315;SDS011;10817;55.820;13.030;2023-12-29T03:07:00;15.98;;;2.45;;
21315;SDS011;10817;55.820;13.030;2023-12-29T03:09:27;11.45;;;2.35;;
21315;SDS011;10817;55.820;13.030;2023-12-29T03:11:54;11.63;;;2.42;;
21315;SDS011;10817;55.820;13.030;2023-12-29T03:14:22;18.02;;;2.50;;
21315;SDS011;10817;55.820;13.030;2023-12-29T03:16:49;8.15;;;2.00;;
21315;SDS011;10817;55.820;13.030;2023-12-29T03:19:17;10.43;;;2.40;;
21315;SDS011;10817;55.820;13.030;2023-12-29T03:21:44;17.05;;;2.30;;
21315;SDS011;10817;55.820;13.030;2023-12-29T03:24:14;16.63;;;1.98;;
21315;SDS011;10817;55.820;13.030;2023-12-29T03:26:41;17.05;;;2.05;;
21315;SDS011;10817;55.820;13.030;2023-12-29T03:29:08;8.82;;;2.17;;
21315;SDS011;10817;55.820;13.030;2023-12-29T03:31:36;16.20;;;2.60;;
21315;SDS011;10817;55.820;13.030;2023-12-29T03:34:05;8.13;;;1.77;;
21315;SDS011;10817;55.820;13.030;2023-12-29T03:36:32;16.38;;;2.50;;
21315;SDS011;10817;55.820;13.030;2023-12-29T03:38:59;19.88;;;2.33;;
21315;SDS011;10817;55.820;13.030;2023-12-29T03:41:27;11.05;;;1.90;;
21315;SDS011;10817;55.820;13.030;2023-12-29T03:43:55;19.77;;;2.50;;
21315;SDS011;10817;55.820;13.030;2023-12-29T03:46:22;8.23;;;1.92;;
21315;SDS011;10817;55.820;13.030;2023-12-29T03:48:51;12.43;;;2.00;;
21315;SDS011;10817;55.820;13.030;2023-12-29T03:51:18;18.13;;;1.77;;
21315;SDS011;10817;55.820;13.030;2023-12-29T03:53:45;16.25;;;2.47;;
21315;SDS011;10817;55.820;13.030;2023-12-29T03:56:13;19.25;;;2.40;;
21315;SDS011;10817;55.820;13.030;2023-12-29T03:58:41;13.73;;;2.33;;
21315;SDS011;10817;55.820;13.030;2023-12-29T04:01:09;16.05;;;2.33;;
21315;SDS011;10817;55.820;13.030;2023-12-29T04:03:36;13.13;;;2.08;;
21315;SDS011;10817;55.820;13.030;2023-12-29T04:06:05;12.90;;;2.25;;
21315;SDS011;10817;55.820;13.030;2023-12-29T04:08:32;12.73;;;2.20;;
21315;SDS011;10817;55.820;13.030;2023-12-29T04:10:59;15.23;;;2.15;;
21315;SDS011;10817;55.820;13.030;2023-12-29T04:13:27;15.82;;;2.17;;
21315;SDS011;10817;55.820;13.030;2023-12-29T04:15:54;21.30;;;2.70;;
21315;SDS011;10817;55.820;13.030;2023-12-29T04:18:21;9.50;;;2.15;;
21315;SDS011;10817;55.820;13.030;2023-12-29T04:20:49;15.82;;;2.45;;
21315;SDS011;10817;55.820;13.030;2023-12-29T04:23:17;19.55;;;3.10;;
21315;SDS011;10817;55.820;13.030;2023-12-29T04:25:45;16.77;;;2.47;;
21315;SDS011;10817;55.820;13.030;2023-12-29T04:28:12;14.40;;;1.98;;
21315;SDS011;10817;55.820;13.030;2023-12-29T04:30:39;12.20;;;2.50;;
21315;SDS011;10817;55.820;13.030;2023-12-29T04:33:06;8.13;;;1.88;;
21315;SDS011;10817;55.820;13.030;2023-12-29T04:35:33;21.55;;;2.95;;
21315;SDS011;10817;55.820;13.030;2023-12-29T04:38:01;14.65;;;2.15;;
21315;SDS011;10817;55.820;13.030;2023-12-29T04:40:30;12.35;;;2.53;;
21315;SDS011;10817;55.820;13.030;2023-12-29T04:42:57;15.73;;;2.15;;
21315;SDS011;10817;55.820;13.030;2023-12-29T04:45:24;12.02;;;2.45;;
21315;SDS011;10817;55.820;13.030;2023-12-29T04:47:52;22.85;;;2.45;;
21315;SDS011;10817;55.820;13.030;2023-12-29T04:50:19;13.82;;;2.08;;
21315;SDS011;10817;55.820;13.030;2023-12-29T04:52:46;15.23;;;2.45;;
21315;SDS011;10817;55.820;13.030;2023-12-29T04:55:13;12.02;;;1.90;;
21315;SDS011;10817;55.820;13.030;2023-12-29T04:57:42;14.73;;;2.05;;
21315;SDS011;10817;55.820;13.030;2023-12-29T05:00:10;9.43;;;2.08;;
21315;SDS011;10817;55.820;13.030;2023-12-29T05:02:38;4.88;;;2.22;;
21315;SDS011;10817;55.820;13.030;2023-12-29T05:05:05;11.23;;;2.13;;
21315;SDS011;10817;55.820;13.030;2023-12-29T05:07:32;6.45;;;1.52;;
21315;SDS011;10817;55.820;13.030;2023-12-29T05:09:59;6.03;;;1.50;;
21315;SDS011;10817;55.820;13.030;2023-12-29T05:12:27;8.32;;;1.80;;
21315;SDS011;10817;55.820;13.030;2023-12-29T05:14:56;10.13;;;1.75;;
21315;SDS011;10817;55.820;13.030;2023-12-29T05:17:23;12.23;;;2.50;;
21315;SDS011;10817;55.820;13.030;2023-12-29T05:19:49;7.25;;;1.50;;
21315;SDS011;10817;55.820;13.030;2023-12-29T05:22:17;10.63;;;2.03;;
21315;SDS011;10817;55.820;13.030;2023-12-29T05:24:44;10.50;;;1.80;;
21315;SDS011;10817;55.820;13.030;2023-12-29T05:27:11;10.85;;;1.23;;
21315;SDS011;10817;55.820;13.030;2023-12-29T05:29:38;13.40;;;2.28;;
21315;SDS011;10817;55.820;13.030;2023-12-29T05:32:07;10.18;;;1.90;;
21315;SDS011;10817;55.820;13.030;2023-12-29T05:34:35;11.90;;;2.00;;
21315;SDS011;10817;55.820;13.030;2023-12-29T05:37:02;12.25;;;2.25;;
21315;SDS011;10817;55.820;13.030;2023-12-29T05:39:29;8.40;;;1.90;;
21315;SDS011;10817;55.820;13.030;2023-12-29T05:41:56;13.85;;;2.40;;
21315;SDS011;10817;55.820;13.030;2023-12-29T05:44:24;13.73;;;1.85;;
21315;SDS011;10817;55.820;13.030;2023-12-29T05:46:51;10.75;;;1.75;;
21315;SDS011;10817;55.820;13.030;2023-12-29T05:49:25;6.32;;;1.55;;
21315;SDS011;10817;55.820;13.030;2023-12-29T05:51:52;5.55;;;1.83;;
21315;SDS011;10817;55.820;13.030;2023-12-29T05:54:19;9.40;;;1.60;;
21315;SDS011;10817;55.820;13.030;2023-12-29T05:56:46;11.98;;;1.92;;
21315;SDS011;10817;55.820;13.030;2023-12-29T05:59:13;14.57;;;2.00;;
21315;SDS011;10817;55.820;13.030;2023-12-29T06:01:40;6.80;;;1.70;;
21315;SDS011;10817;55.820;13.030;2023-12-29T06:04:07;9.60;;;1.88;;
21315;SDS011;10817;55.820;13.030;2023-12-29T06:06:36;13.75;;;2.20;;
21315;SDS011;10817;55.820;13.030;2023-12-29T06:09:03;9.57;;;2.22;;
21315;SDS011;10817;55.820;13.030;2023-12-29T06:11:30;14.23;;;2.13;;
21315;SDS011;10817;55.820;13.030;2023-12-29T06:13:58;8.45;;;2.00;;
21315;SDS011;10817;55.820;13.030;2023-12-29T06:16:25;12.63;;;1.88;;
21315;SDS011;10817;55.820;13.030;2023-12-29T06:18:54;13.57;;;2.25;;
21315;SDS011;10817;55.820;13.030;2023-12-29T06:21:22;11.80;;;2.55;;
21315;SDS011;10817;55.820;13.030;2023-12-29T06:23:50;13.23;;;2.75;;
21315;SDS011;10817;55.820;13.030;2023-12-29T06:26:17;14.55;;;2.33;;
21315;SDS011;10817;55.820;13.030;2023-12-29T06:28:45;23.30;;;2.78;;
21315;SDS011;10817;55.820;13.030;2023-12-29T06:31:12;18.05;;;3.72;;
21315;SDS011;10817;55.820;13.030;2023-12-29T06:33:40;15.93;;;2.90;;
21315;SDS011;10817;55.820;13.030;2023-12-29T06:36:08;16.98;;;2.60;;
21315;SDS011;10817;55.820;13.030;2023-12-29T06:38:35;14.88;;;2.83;;
21315;SDS011;10817;55.820;13.030;2023-12-29T06:41:04;20.63;;;4.65;;
21315;SDS011;10817;55.820;13.030;2023-12-29T06:43:32;12.52;;;2.45;;
21315;SDS011;10817;55.820;13.030;2023-12-29T06:46:00;19.55;;;2.53;;
21315;SDS011;10817;55.820;13.030;2023-12-29T06:48:27;23.10;;;3.10;;
21315;SDS011;10817;55.820;13.030;2023-12-29T06:50:54;18.15;;;2.22;;
21315;SDS011;10817;55.820;13.030;2023-12-29T06:53:21;14.70;;;2.35;;
21315;SDS011;10817;55.820;13.030;2023-12-29T06:55:48;16.10;;;2.35;;
21315;SDS011;10817;55.820;13.030;2023-12-29T06:58:17;10.98;;;2.10;;
21315;SDS011;10817;55.820;13.030;2023-12-29T07:00:44;11.38;;;2.17;;
21315;SDS011;10817;55.820;13.030;2023-12-29T07:03:12;11.93;;;1.70;;
21315;SDS011;10817;55.820;13.030;2023-12-29T07:05:40;12.68;;;2.13;;
21315;SDS011;10817;55.820;13.030;2023-12-29T07:08:07;10.52;;;2.17;;
21315;SDS011;10817;55.820;13.030;2023-12-29T07:10:34;16.02;;;1.83;;
21315;SDS011;10817;55.820;13.030;2023-12-29T07:13:01;10.60;;;1.90;;
21315;SDS011;10817;55.820;13.030;2023-12-29T07:15:30;16.38;;;2.05;;
21315;SDS011;10817;55.820;13.030;2023-12-29T07:17:57;9.85;;;2.05;;
21315;SDS011;10817;55.820;13.030;2023-12-29T07:20:24;17.00;;;2.22;;
21315;SDS011;10817;55.820;13.030;2023-12-29T07:22:51;7.45;;;1.90;;
21315;SDS011;10817;55.820;13.030;2023-12-29T07:25:18;14.85;;;2.80;;
21315;SDS011;10817;55.820;13.030;2023-12-29T07:27:46;12.73;;;2.70;;
21315;SDS011;10817;55.820;13.030;2023-12-29T07:30:14;16.30;;;3.25;;
21315;SDS011;10817;55.820;13.030;2023-12-29T07:32:42;20.25;;;2.88;;
21315;SDS011;10817;55.820;13.030;2023-12-29T07:35:09;17.35;;;3.65;;
21315;SDS011;10817;55.820;13.030;2023-12-29T07:37:40;19.95;;;3.70;;
21315;SDS011;10817;55.820;13.030;2023-12-29T07:40:08;20.52;;;3.80;;
21315;SDS011;10817;55.820;13.030;2023-12-29T07:42:37;23.73;;;4.07;;
21315;SDS011;10817;55.820;13.030;2023-12-29T07:45:04;23.55;;;4.10;;
21315;SDS011;10817;55.820;13.030;2023-12-29T07:47:31;27.35;;;4.00;;
21315;SDS011;10817;55.820;13.030;2023-12-29T07:50:00;26.95;;;3.70;;
21315;SDS011;10817;55.820;13.030;2023-12-29T07:52:27;23.88;;;3.50;;
21315;SDS011;10817;55.820;13.030;2023-12-29T07:54:54;18.45;;;3.13;;
21315;SDS011;10817;55.820;13.030;2023-12-29T07:57:22;21.50;;;3.33;;
21315;SDS011;10817;55.820;13.030;2023-12-29T07:59:49;27.40;;;3.90;;
21315;SDS011;10817;55.820;13.030;2023-12-29T08:02:16;25.75;;;4.10;;
21315;SDS011;10817;55.820;13.030;2023-12-29T08:04:43;25.58;;;4.28;;
21315;SDS011;10817;55.820;13.030;2023-12-29T08:07:13;20.33;;;4.13;;
21315;SDS011;10817;55.820;13.030;2023-12-29T08:09:40;32.13;;;3.95;;
21315;SDS011;10817;55.820;13.030;2023-12-29T08:12:07;29.02;;;4.05;;
21315;SDS011;10817;55.820;13.030;2023-12-29T08:14:34;25.77;;;4.32;;
21315;SDS011;10817;55.820;13.030;2023-12-29T08:17:01;37.75;;;4.72;;
21315;SDS011;10817;55.820;13.030;2023-12-29T08:19:28;27.20;;;4.78;;
21315;SDS011;10817;55.820;13.030;2023-12-29T08:21:55;32.10;;;3.92;;
21315;SDS011;10817;55.820;13.030;2023-12-29T08:24:24;25.42;;;4.50;;
21315;SDS011;10817;55.820;13.030;2023-12-29T08:26:52;40.05;;;4.88;;
21315;SDS011;10817;55.820;13.030;2023-12-29T08:29:19;39.28;;;5.10;;
21315;SDS011;10817;55.820;13.030;2023-12-29T08:31:46;47.28;;;4.55;;
21315;SDS011;10817;55.820;13.030;2023-12-29T08:34:13;40.70;;;5.80;;
21315;SDS011;10817;55.820;13.030;2023-12-29T08:36:41;49.05;;;6.13;;
21315;SDS011;10817;55.820;13.030;2023-12-29T08:39:08;49.70;;;5.10;;
21315;SDS011;10817;55.820;13.030;2023-12-29T08:41:38;45.50;;;6.07;;
21315;SDS011;10817;55.820;13.030;2023-12-29T08:44:05;46.47;;;5.95;;
21315;SDS011;10817;55.820;13.030;2023-12-29T08:46:32;32.75;;;5.32;;
21315;SDS011;10817;55.820;13.030;2023-12-29T08:48:59;40.40;;;6.38;;
21315;SDS011;10817;55.820;13.030;2023-12-29T08:51:27;40.83;;;5.80;;
21315;SDS011;10817;55.820;13.030;2023-12-29T08:53:54;46.67;;;6.45;;
21315;SDS011;10817;55.820;13.030;2023-12-29T08:56:21;37.50;;;5.28;;
21315;SDS011;10817;55.820;13.030;2023-12-29T08:58:49;43.10;;;5.10;;
21315;SDS011;10817;55.820;13.030;2023-12-29T09:01:17;36.22;;;5.78;;
21315;SDS011;10817;55.820;13.030;2023-12-29T09:03:45;39.67;;;5.05;;
21315;SDS011;10817;55.820;13.030;2023-12-29T09:06:12;43.28;;;4.97;;
21315;SDS011;10817;55.820;13.030;2023-12-29T09:08:39;34.80;;;4.40;;
21315;SDS011;10817;55.820;13.030;2023-12-29T09:11:06;29.75;;;3.83;;
21315;SDS011;10817;55.820;13.030;2023-12-29T09:13:33;25.65;;;4.75;;
21315;SDS011;10817;55.820;13.030;2023-12-29T09:16:02;28.20;;;3.58;;
21315;SDS011;10817;55.820;13.030;2023-12-29T09:18:29;33.00;;;4.40;;
21315;SDS011;10817;55.820;13.030;2023-12-29T09:20:56;29.08;;;3.80;;
21315;SDS011;10817;55.820;13.030;2023-12-29T09:23:23;30.40;;;4.00;;
21315;SDS011;10817;55.820;13.030;2023-12-29T09:25:51;28.95;;;4.47;;
21315;SDS011;10817;55.820;13.030;2023-12-29T09:28:18;34.88;;;4.93;;
21315;SDS011;10817;55.820;13.030;2023-12-29T09:30:45;33.65;;;5.35;;
21315;SDS011;10817;55.820;13.030;2023-12-29T09:33:13;30.27;;;4.93;;
21315;SDS011;10817;55.820;13.030;2023-12-29T09:35:40;31.10;;;4.60;;
21315;SDS011;10817;55.820;13.030;2023-12-29T09:38:07;38.55;;;4.75;;
21315;SDS011;10817;55.820;13.030;2023-12-29T09:40:35;37.30;;;5.68;;
21315;SDS011;10817;55.820;13.030;2023-12-29T09:43:03;25.63;;;4.65;;
21315;SDS011;10817;55.820;13.030;2023-12-29T09:45:30;28.75;;;4.80;;
21315;SDS011;10817;55.820;13.030;2023-12-29T09:48:00;29.15;;;4.43;;
21315;SDS011;10817;55.820;13.030;2023-12-29T09:50:30;36.97;;;5.13;;
21315;SDS011;10817;55.820;13.030;2023-12-29T09:52:57;25.33;;;4.57;;
21315;SDS011;10817;55.820;13.030;2023-12-29T09:55:24;25.40;;;4.38;;
21315;SDS011;10817;55.820;13.030;2023-12-29T09:57:52;39.45;;;5.38;;
21315;SDS011;10817;55.820;13.030;2023-12-29T10:00:19;34.95;;;4.38;;
21315;SDS011;10817;55.820;13.030;2023-12-29T10:02:47;34.75;;;5.50;;
21315;SDS011;10817;55.820;13.030;2023-12-29T10:05:17;25.60;;;4.40;;
21315;SDS011;10817;55.820;13.030;2023-12-29T10:07:45;36.55;;;6.35;;
21315;SDS011;10817;55.820;13.030;2023-12-29T10:10:14;31.20;;;4.43;;
21315;SDS011;10817;55.820;13.030;2023-12-29T10:12:42;30.88;;;4.45;;
21315;SDS011;10817;55.820;13.030;2023-12-29T10:15:12;31.92;;;5.60;;
21315;SDS011;10817;55.820;13.030;2023-12-29T10:17:48;32.35;;;5.50;;
21315;SDS011;10817;55.820;13.030;2023-12-29T10:20:21;40.17;;;5.28;;
21315;SDS011;10817;55.820;13.030;2023-12-29T10:22:54;35.00;;;5.45;;
21315;SDS011;10817;55.820;13.030;2023-12-29T10:25:22;38.90;;;6.22;;
21315;SDS011;10817;55.820;13.030;2023-12-29T10:27:49;47.83;;;6.45;;
21315;SDS011;10817;55.820;13.030;2023-12-29T10:30:17;40.28;;;6.13;;
21315;SDS011;10817;55.820;13.030;2023-12-29T10:32:49;37.85;;;6.30;;
21315;SDS011;10817;55.820;13.030;2023-12-29T10:35:16;47.95;;;6.28;;
21315;SDS011;10817;55.820;13.030;2023-12-29T10:37:43;35.47;;;6.30;;
21315;SDS011;10817;55.820;13.030;2023-12-29T10:40:16;37.63;;;5.18;;
21315;SDS011;10817;55.820;13.030;2023-12-29T10:42:51;33.08;;;5.18;;
21315;SDS011;10817;55.820;13.030;2023-12-29T10:45:18;36.47;;;4.93;;
21315;SDS011;10817;55.820;13.030;2023-12-29T10:47:45;37.08;;;6.65;;
21315;SDS011;10817;55.820;13.030;2023-12-29T10:50:12;36.78;;;4.75;;
21315;SDS011;10817;55.820;13.030;2023-12-29T10:52:39;33.80;;;6.60;;
21315;SDS011;10817;55.820;13.030;2023-12-29T10:55:08;33.33;;;6.55;;
21315;SDS011;10817;55.820;13.030;2023-12-29T10:57:37;43.20;;;5.25;;
21315;SDS011;10817;55.820;13.030;2023-12-29T11:00:05;35.40;;;5.85;;
21315;SDS011;10817;55.820;13.030;2023-12-29T11:02:33;41.15;;;6.97;;
21315;SDS011;10817;55.820;13.030;2023-12-29T11:05:03;38.42;;;5.35;;
21315;SDS011;10817;55.820;13.030;2023-12-29T11:07:31;42.78;;;5.18;;
21315;SDS011;10817;55.820;13.030;2023-12-29T11:10:00;31.88;;;5.18;;
21315;SDS011;10817;55.820;13.030;2023-12-29T11:12:28;39.03;;;5.30;;
21315;SDS011;10817;55.820;13.030;2023-12-29T11:14:57;29.20;;;4.95;;
21315;SDS011;10817;55.820;13.030;2023-12-29T11:17:25;35.50;;;6.60;;
21315;SDS011;10817;55.820;13.030;2023-12-29T11:19:52;25.05;;;4.15;;
21315;SDS011;10817;55.820;13.030;2023-12-29T11:22:20;38.50;;;5.20;;
21315;SDS011;10817;55.820;13.030;2023-12-29T11:24:47;26.45;;;4.53;;
21315;SDS011;10817;55.820;13.030;2023-12-29T11:27:15;29.80;;;4.18;;
21315;SDS011;10817;55.820;13.030;2023-12-29T11:29:43;30.17;;;4.82;;
21315;SDS011;10817;55.820;13.030;2023-12-29T11:32:14;35.35;;;5.43;;
21315;SDS011;10817;55.820;13.030;2023-12-29T11:34:43;26.95;;;4.38;;
21315;SDS011;10817;55.820;13.030;2023-12-29T11:37:15;22.02;;;5.03;;
21315;SDS011;10817;55.820;13.030;2023-12-29T11:39:44;21.45;;;3.60;;
21315;SDS011;10817;55.820;13.030;2023-12-29T11:42:14;27.85;;;4.70;;
21315;SDS011;10817;55.820;13.030;2023-12-29T11:44:44;33.05;;;4.65;;
21315;SDS011;10817;55.820;13.030;2023-12-29T11:50:00;32.25;;;4.72;;
21315;SDS011;10817;55.820;13.030;2023-12-29T11:52:33;27.20;;;4.30;;
21315;SDS011;10817;55.820;13.030;2023-12-29T11:55:07;18.25;;;3.88;;
21315;SDS011;10817;55.820;13.030;2023-12-29T11:57:34;24.02;;;3.72;;
21315;SDS011;10817;55.820;13.030;2023-12-29T12:00:03;15.65;;;3.38;;
21315;SDS011;10817;55.820;13.030;2023-12-29T12:02:37;13.40;;;2.97;;
21315;SDS011;10817;55.820;13.030;2023-12-29T12:05:06;24.90;;;3.65;;
21315;SDS011;10817;55.820;13.030;2023-12-29T12:10:33;20.25;;;2.92;;
21315;SDS011;10817;55.820;13.030;2023-12-29T12:13:03;21.55;;;3.80;;
21315;SDS011;10817;55.820;13.030;2023-12-29T12:15:31;22.70;;;3.47;;
21315;SDS011;10817;55.820;13.030;2023-12-29T12:17:59;14.13;;;3.30;;
21315;SDS011;10817;55.820;13.030;2023-12-29T12:20:30;17.20;;;3.83;;
21315;SDS011;10817;55.820;13.030;2023-12-29T12:22:58;22.00;;;4.03;;
21315;SDS011;10817;55.820;13.030;2023-12-29T12:25:25;22.90;;;3.92;;
21315;SDS011;10817;55.820;13.030;2023-12-29T12:27:53;16.50;;;3.40;;
21315;SDS011;10817;55.820;13.030;2023-12-29T12:30:20;14.20;;;2.60;;
21315;SDS011;10817;55.820;13.030;2023-12-29T12:32:47;15.95;;;3.30;;
21315;SDS011;10817;55.820;13.030;2023-12-29T12:35:24;13.73;;;2.50;;
21315;SDS011;10817;55.820;13.030;2023-12-29T12:40:36;14.52;;;2.83;;
21315;SDS011;10817;55.820;13.030;2023-12-29T12:43:03;20.65;;;3.03;;
21315;SDS011;10817;55.820;13.030;2023-12-29T12:45:33;12.95;;;3.10;;
21315;SDS011;10817;55.820;13.030;2023-12-29T12:48:01;19.80;;;3.88;;
21315;SDS011;10817;55.820;13.030;2023-12-29T12:50:29;12.82;;;2.80;;
21315;SDS011;10817;55.820;13.030;2023-12-29T12:52:56;14.85;;;3.00;;
21315;SDS011;10817;55.820;13.030;2023-12-29T12:55:24;18.52;;;3.50;;
21315;SDS011;10817;55.820;13.030;2023-12-29T12:57:54;12.70;;;3.17;;
21315;SDS011;10817;55.820;13.030;2023-12-29T13:00:23;15.65;;;2.90;;
21315;SDS011;10817;55.820;13.030;2023-12-29T13:02:50;10.25;;;3.47;;
21315;SDS011;10817;55.820;13.030;2023-12-29T13:05:17;11.52;;;2.97;;
21315;SDS011;10817;55.820;13.030;2023-12-29T13:07:44;16.95;;;2.97;;
21315;SDS011;10817;55.820;13.030;2023-12-29T13:10:11;15.80;;;2.70;;
21315;SDS011;10817;55.820;13.030;2023-12-29T13:12:39;12.95;;;2.40;;
21315;SDS011;10817;55.820;13.030;2023-12-29T13:15:08;18.58;;;3.05;;
21315;SDS011;10817;55.820;13.030;2023-12-29T13:17:35;12.50;;;3.08;;
21315;SDS011;10817;55.820;13.030;2023-12-29T13:20:03;15.48;;;2.72;;
21315;SDS011;10817;55.820;13.030;2023-12-29T13:22:31;18.70;;;2.95;;
21315;SDS011;10817;55.820;13.030;2023-12-29T13:24:59;18.48;;;2.97;;
21315;SDS011;10817;55.820;13.030;2023-12-29T13:27:26;10.10;;;2.28;;
21315;SDS011;10817;55.820;13.030;2023-12-29T13:29:54;15.77;;;3.20;;
21315;SDS011;10817;55.820;13.030;2023-12-29T13:32:23;22.17;;;3.25;;
21315;SDS011;10817;55.820;13.030;2023-12-29T13:34:54;14.63;;;3.20;;
21315;SDS011;10817;55.820;13.030;2023-12-29T13:37:25;20.23;;;3.08;;
21315;SDS011;10817;55.820;13.030;2023-12-29T13:39:53;18.88;;;3.58;;
21315;SDS011;10817;55.820;13.030;2023-12-29T13:42:23;18.73;;;2.80;;
21315;SDS011;10817;55.820;13.030;2023-12-29T13:44:51;11.13;;;2.42;;
21315;SDS011;10817;55.820;13.030;2023-12-29T13:47:19;17.80;;;2.92;;
21315;SDS011;10817;55.820;13.030;2023-12-29T13:49:48;15.07;;;2.72;;
21315;SDS011;10817;55.820;13.030;2023-12-29T13:52:15;8.57;;;2.05;;
21315;SDS011;10817;55.820;13.030;2023-12-29T13:54:44;12.93;;;2.40;;
21315;SDS011;10817;55.820;13.030;2023-12-29T13:57:11;12.60;;;3.53;;
21315;SDS011;10817;55.820;13.030;2023-12-29T13:59:38;15.18;;;2.47;;
21315;SDS011;10817;55.820;13.030;2023-12-29T14:02:23;17.05;;;3.00;;
21315;SDS011;10817;55.820;13.030;2023-12-29T14:08:00;12.10;;;2.35;;
21315;SDS011;10817;55.820;13.030;2023-12-29T14:10:30;14.82;;;2.42;;
21315;SDS011;10817;55.820;13.030;2023-12-29T14:13:03;12.75;;;3.00;;
21315;SDS011;10817;55.820;13.030;2023-12-29T14:15:33;13.55;;;2.30;;
21315;SDS011;10817;55.820;13.030;2023-12-29T14:18:01;11.07;;;2.60;;
21315;SDS011;10817;55.820;13.030;2023-12-29T14:20:34;10.68;;;2.38;;
21315;SDS011;10817;55.820;13.030;2023-12-29T14:23:04;12.13;;;2.60;;
21315;SDS011;10817;55.820;13.030;2023-12-29T14:25:31;14.35;;;2.72;;
21315;SDS011;10817;55.820;13.030;2023-12-29T14:28:00;11.27;;;2.25;;
21315;SDS011;10817;55.820;13.030;2023-12-29T14:30:28;16.92;;;2.80;;
21315;SDS011;10817;55.820;13.030;2023-12-29T14:32:56;24.63;;;2.78;;
21315;SDS011;10817;55.820;13.030;2023-12-29T14:35:24;14.35;;;2.53;;
21315;SDS011;10817;55.820;13.030;2023-12-29T14:37:51;14.00;;;2.45;;
21315;SDS011;10817;55.820;13.030;2023-12-29T14:40:19;12.05;;;3.05;;